Terminal Aerodrome Forecast
Issued by NWS

Current Version | Previous Version | Text Only | Print | Product List | Glossary On
Versions: 1 2 3 4 5 6 7 8 9 10 11 12 13 14 15
000
FTUS46 KSGX 231700
TAFSNA
TAF
KSNA 231722Z 2318/2418 VRB04KT P6SM SCT025 SCT250
     FM232000 24009KT P6SM SCT250
     FM240300 VRB04KT P6SM SCT200
     FM240800 VRB03KT P6SM SCT018
      TEMPO 2411/2415 BKN014
     FM241600 20006KT P6SM FEW020=

USA.gov is the U.S. government's official web portal to all federal, state and local government web resources and services.